sensor_id;sensor_type;location;lat;lon;timestamp;P1;durP1;ratioP1;P2;durP2;ratioP2
46348;SDS011;32057;47.830;19.046;2023-03-01T00:01:21;9.45;;;4.30;;
46348;SDS011;32057;47.830;19.046;2023-03-01T00:03:48;12.90;;;5.72;;
46348;SDS011;32057;47.830;19.046;2023-03-01T00:06:13;10.50;;;5.53;;
46348;SDS011;32057;47.830;19.046;2023-03-01T00:08:39;7.60;;;5.13;;
46348;SDS011;32057;47.830;19.046;2023-03-01T00:11:06;5.13;;;2.60;;
46348;SDS011;32057;47.830;19.046;2023-03-01T00:13:35;8.02;;;2.80;;
46348;SDS011;32057;47.830;19.046;2023-03-01T00:16:05;6.65;;;3.25;;
46348;SDS011;32057;47.830;19.046;2023-03-01T00:18:32;4.38;;;2.72;;
46348;SDS011;32057;47.830;19.046;2023-03-01T00:20:58;3.95;;;3.30;;
46348;SDS011;32057;47.830;19.046;2023-03-01T00:23:24;2.95;;;2.65;;
46348;SDS011;32057;47.830;19.046;2023-03-01T00:25:50;3.45;;;3.08;;
46348;SDS011;32057;47.830;19.046;2023-03-01T00:28:16;5.10;;;3.30;;
46348;SDS011;32057;47.830;19.046;2023-03-01T00:30:42;4.50;;;3.47;;
46348;SDS011;32057;47.830;19.046;2023-03-01T00:33:07;5.20;;;3.63;;
46348;SDS011;32057;47.830;19.046;2023-03-01T00:35:33;7.07;;;4.60;;
46348;SDS011;32057;47.830;19.046;2023-03-01T00:37:59;6.35;;;3.83;;
46348;SDS011;32057;47.830;19.046;2023-03-01T00:40:25;5.85;;;3.63;;
46348;SDS011;32057;47.830;19.046;2023-03-01T00:42:51;9.80;;;4.05;;
46348;SDS011;32057;47.830;19.046;2023-03-01T00:45:16;3.63;;;3.08;;
46348;SDS011;32057;47.830;19.046;2023-03-01T00:47:42;5.75;;;3.72;;
46348;SDS011;32057;47.830;19.046;2023-03-01T00:50:08;6.43;;;4.38;;
46348;SDS011;32057;47.830;19.046;2023-03-01T00:52:35;4.82;;;3.42;;
46348;SDS011;32057;47.830;19.046;2023-03-01T00:55:00;6.20;;;3.55;;
46348;SDS011;32057;47.830;19.046;2023-03-01T00:57:25;7.60;;;4.68;;
46348;SDS011;32057;47.830;19.046;2023-03-01T00:59:51;12.57;;;4.65;;
46348;SDS011;32057;47.830;19.046;2023-03-01T01:02:19;7.30;;;3.53;;
46348;SDS011;32057;47.830;19.046;2023-03-01T01:04:45;4.85;;;3.85;;
46348;SDS011;32057;47.830;19.046;2023-03-01T01:07:11;5.38;;;3.75;;
46348;SDS011;32057;47.830;19.046;2023-03-01T01:09:38;5.95;;;4.13;;
46348;SDS011;32057;47.830;19.046;2023-03-01T01:12:03;3.92;;;3.17;;
46348;SDS011;32057;47.830;19.046;2023-03-01T01:14:29;7.72;;;4.35;;
46348;SDS011;32057;47.830;19.046;2023-03-01T01:16:54;8.35;;;3.85;;
46348;SDS011;32057;47.830;19.046;2023-03-01T01:19:20;4.65;;;3.40;;
46348;SDS011;32057;47.830;19.046;2023-03-01T01:21:46;8.23;;;2.90;;
46348;SDS011;32057;47.830;19.046;2023-03-01T01:24:13;9.82;;;3.72;;
46348;SDS011;32057;47.830;19.046;2023-03-01T01:26:39;5.95;;;4.13;;
46348;SDS011;32057;47.830;19.046;2023-03-01T01:29:05;9.07;;;4.05;;
46348;SDS011;32057;47.830;19.046;2023-03-01T01:31:32;8.50;;;4.45;;
46348;SDS011;32057;47.830;19.046;2023-03-01T01:33:59;6.68;;;3.05;;
46348;SDS011;32057;47.830;19.046;2023-03-01T01:36:26;6.75;;;3.55;;
46348;SDS011;32057;47.830;19.046;2023-03-01T01:38:52;6.20;;;3.88;;
46348;SDS011;32057;47.830;19.046;2023-03-01T01:41:18;5.75;;;4.53;;
46348;SDS011;32057;47.830;19.046;2023-03-01T01:43:48;6.90;;;3.70;;
46348;SDS011;32057;47.830;19.046;2023-03-01T01:46:35;7.22;;;4.60;;
46348;SDS011;32057;47.830;19.046;2023-03-01T01:49:05;7.57;;;3.90;;
46348;SDS011;32057;47.830;19.046;2023-03-01T01:51:39;4.82;;;2.97;;
46348;SDS011;32057;47.830;19.046;2023-03-01T01:54:12;5.43;;;3.25;;
46348;SDS011;32057;47.830;19.046;2023-03-01T01:56:42;6.57;;;3.35;;
46348;SDS011;32057;47.830;19.046;2023-03-01T01:59:11;6.45;;;4.28;;
46348;SDS011;32057;47.830;19.046;2023-03-01T02:01:37;7.43;;;3.17;;
46348;SDS011;32057;47.830;19.046;2023-03-01T02:04:03;5.82;;;4.75;;
46348;SDS011;32057;47.830;19.046;2023-03-01T02:07:13;8.02;;;4.28;;
46348;SDS011;32057;47.830;19.046;2023-03-01T02:09:23;9.13;;;4.32;;
46348;SDS011;32057;47.830;19.046;2023-03-01T02:11:49;3.47;;;3.17;;
46348;SDS011;32057;47.830;19.046;2023-03-01T02:14:16;8.07;;;4.70;;
46348;SDS011;32057;47.830;19.046;2023-03-01T02:16:41;11.75;;;4.45;;
46348;SDS011;32057;47.830;19.046;2023-03-01T02:19:08;4.53;;;3.35;;
46348;SDS011;32057;47.830;19.046;2023-03-01T02:24:28;7.25;;;3.80;;
46348;SDS011;32057;47.830;19.046;2023-03-01T02:27:18;6.13;;;4.00;;
46348;SDS011;32057;47.830;19.046;2023-03-01T02:29:49;6.70;;;4.20;;
46348;SDS011;32057;47.830;19.046;2023-03-01T02:32:15;4.07;;;3.17;;
46348;SDS011;32057;47.830;19.046;2023-03-01T02:34:50;6.07;;;3.08;;
46348;SDS011;32057;47.830;19.046;2023-03-01T02:37:17;3.47;;;3.05;;
46348;SDS011;32057;47.830;19.046;2023-03-01T02:39:50;4.78;;;3.30;;
46348;SDS011;32057;47.830;19.046;2023-03-01T02:42:23;4.38;;;3.13;;
46348;SDS011;32057;47.830;19.046;2023-03-01T02:44:55;6.75;;;4.28;;
46348;SDS011;32057;47.830;19.046;2023-03-01T02:47:21;5.88;;;3.33;;
46348;SDS011;32057;47.830;19.046;2023-03-01T02:49:46;3.13;;;2.25;;
46348;SDS011;32057;47.830;19.046;2023-03-01T02:57:26;9.40;;;3.03;;
46348;SDS011;32057;47.830;19.046;2023-03-01T02:59:54;3.78;;;2.33;;
46348;SDS011;32057;47.830;19.046;2023-03-01T03:02:22;2.70;;;2.22;;
46348;SDS011;32057;47.830;19.046;2023-03-01T03:05:03;3.28;;;2.72;;
46348;SDS011;32057;47.830;19.046;2023-03-01T03:07:41;3.70;;;3.33;;
46348;SDS011;32057;47.830;19.046;2023-03-01T03:10:10;5.00;;;2.65;;
46348;SDS011;32057;47.830;19.046;2023-03-01T03:12:41;3.83;;;2.80;;
46348;SDS011;32057;47.830;19.046;2023-03-01T03:15:07;2.97;;;2.30;;
46348;SDS011;32057;47.830;19.046;2023-03-01T03:17:37;3.80;;;3.10;;
46348;SDS011;32057;47.830;19.046;2023-03-01T03:20:04;3.28;;;2.90;;
46348;SDS011;32057;47.830;19.046;2023-03-01T03:22:35;6.45;;;3.05;;
46348;SDS011;32057;47.830;19.046;2023-03-01T03:25:01;4.20;;;3.22;;
46348;SDS011;32057;47.830;19.046;2023-03-01T03:27:27;12.27;;;4.22;;
46348;SDS011;32057;47.830;19.046;2023-03-01T03:29:53;8.15;;;4.38;;
46348;SDS011;32057;47.830;19.046;2023-03-01T03:32:18;6.00;;;2.65;;
46348;SDS011;32057;47.830;19.046;2023-03-01T03:34:43;4.00;;;2.80;;
46348;SDS011;32057;47.830;19.046;2023-03-01T03:37:09;4.25;;;3.75;;
46348;SDS011;32057;47.830;19.046;2023-03-01T03:39:54;3.30;;;2.88;;
46348;SDS011;32057;47.830;19.046;2023-03-01T03:42:20;8.32;;;3.45;;
46348;SDS011;32057;47.830;19.046;2023-03-01T03:44:47;3.83;;;2.88;;
46348;SDS011;32057;47.830;19.046;2023-03-01T03:47:13;7.78;;;3.58;;
46348;SDS011;32057;47.830;19.046;2023-03-01T03:49:38;5.93;;;4.40;;
46348;SDS011;32057;47.830;19.046;2023-03-01T03:52:04;7.30;;;4.32;;
46348;SDS011;32057;47.830;19.046;2023-03-01T03:54:29;7.32;;;4.03;;
46348;SDS011;32057;47.830;19.046;2023-03-01T03:56:55;4.85;;;3.97;;
46348;SDS011;32057;47.830;19.046;2023-03-01T03:59:20;4.82;;;3.80;;
46348;SDS011;32057;47.830;19.046;2023-03-01T04:01:46;8.15;;;4.68;;
46348;SDS011;32057;47.830;19.046;2023-03-01T04:04:11;5.00;;;4.20;;
46348;SDS011;32057;47.830;19.046;2023-03-01T04:06:36;5.13;;;3.13;;
46348;SDS011;32057;47.830;19.046;2023-03-01T04:09:02;5.97;;;4.10;;
46348;SDS011;32057;47.830;19.046;2023-03-01T04:11:27;7.25;;;4.18;;
46348;SDS011;32057;47.830;19.046;2023-03-01T04:13:54;4.68;;;3.38;;
46348;SDS011;32057;47.830;19.046;2023-03-01T04:16:21;5.03;;;4.05;;
46348;SDS011;32057;47.830;19.046;2023-03-01T04:18:47;6.43;;;4.65;;
46348;SDS011;32057;47.830;19.046;2023-03-01T04:21:13;12.07;;;3.60;;
46348;SDS011;32057;47.830;19.046;2023-03-01T04:23:38;5.28;;;3.63;;
46348;SDS011;32057;47.830;19.046;2023-03-01T04:26:05;2.90;;;2.42;;
46348;SDS011;32057;47.830;19.046;2023-03-01T04:28:35;7.10;;;3.55;;
46348;SDS011;32057;47.830;19.046;2023-03-01T04:31:09;7.40;;;3.53;;
46348;SDS011;32057;47.830;19.046;2023-03-01T04:33:45;4.35;;;2.47;;
46348;SDS011;32057;47.830;19.046;2023-03-01T04:36:19;3.55;;;2.38;;
46348;SDS011;32057;47.830;19.046;2023-03-01T04:38:46;5.05;;;3.22;;
46348;SDS011;32057;47.830;19.046;2023-03-01T04:41:12;8.00;;;4.10;;
46348;SDS011;32057;47.830;19.046;2023-03-01T04:43:38;9.07;;;4.28;;
46348;SDS011;32057;47.830;19.046;2023-03-01T04:46:07;4.97;;;3.65;;
46348;SDS011;32057;47.830;19.046;2023-03-01T04:48:36;3.72;;;3.22;;
46348;SDS011;32057;47.830;19.046;2023-03-01T04:51:02;9.15;;;3.63;;
46348;SDS011;32057;47.830;19.046;2023-03-01T04:53:28;5.70;;;3.85;;
46348;SDS011;32057;47.830;19.046;2023-03-01T04:55:54;6.80;;;3.92;;
46348;SDS011;32057;47.830;19.046;2023-03-01T04:58:24;5.18;;;3.47;;
46348;SDS011;32057;47.830;19.046;2023-03-01T05:00:51;5.07;;;3.08;;
46348;SDS011;32057;47.830;19.046;2023-03-01T05:03:17;7.90;;;4.03;;
46348;SDS011;32057;47.830;19.046;2023-03-01T05:05:43;7.32;;;4.03;;
46348;SDS011;32057;47.830;19.046;2023-03-01T05:08:10;7.10;;;4.07;;
46348;SDS011;32057;47.830;19.046;2023-03-01T05:10:43;6.90;;;3.30;;
46348;SDS011;32057;47.830;19.046;2023-03-01T05:13:11;7.55;;;3.70;;
46348;SDS011;32057;47.830;19.046;2023-03-01T05:15:38;3.67;;;2.95;;
46348;SDS011;32057;47.830;19.046;2023-03-01T05:18:04;6.00;;;4.90;;
46348;SDS011;32057;47.830;19.046;2023-03-01T05:20:36;5.97;;;4.55;;
46348;SDS011;32057;47.830;19.046;2023-03-01T05:23:03;5.78;;;3.60;;
46348;SDS011;32057;47.830;19.046;2023-03-01T05:25:30;8.48;;;5.07;;
46348;SDS011;32057;47.830;19.046;2023-03-01T05:27:58;5.53;;;3.95;;
46348;SDS011;32057;47.830;19.046;2023-03-01T05:30:24;5.90;;;3.50;;
46348;SDS011;32057;47.830;19.046;2023-03-01T05:32:50;5.50;;;3.42;;
46348;SDS011;32057;47.830;19.046;2023-03-01T05:35:20;5.10;;;3.92;;
46348;SDS011;32057;47.830;19.046;2023-03-01T05:37:47;5.60;;;3.85;;
46348;SDS011;32057;47.830;19.046;2023-03-01T05:40:15;5.03;;;3.45;;
46348;SDS011;32057;47.830;19.046;2023-03-01T05:42:43;6.07;;;4.47;;
46348;SDS011;32057;47.830;19.046;2023-03-01T05:45:14;5.22;;;3.88;;
46348;SDS011;32057;47.830;19.046;2023-03-01T05:47:40;7.72;;;4.03;;
46348;SDS011;32057;47.830;19.046;2023-03-01T05:50:17;7.05;;;3.58;;
46348;SDS011;32057;47.830;19.046;2023-03-01T05:53:13;7.88;;;3.72;;
46348;SDS011;32057;47.830;19.046;2023-03-01T05:55:39;4.97;;;3.92;;
46348;SDS011;32057;47.830;19.046;2023-03-01T05:58:07;7.13;;;4.35;;
46348;SDS011;32057;47.830;19.046;2023-03-01T06:00:34;6.05;;;3.10;;
46348;SDS011;32057;47.830;19.046;2023-03-01T06:02:59;6.93;;;4.43;;
46348;SDS011;32057;47.830;19.046;2023-03-01T06:05:26;5.50;;;3.33;;
46348;SDS011;32057;47.830;19.046;2023-03-01T06:07:52;7.25;;;5.05;;
46348;SDS011;32057;47.830;19.046;2023-03-01T06:10:18;6.93;;;4.35;;
46348;SDS011;32057;47.830;19.046;2023-03-01T06:12:45;4.18;;;2.60;;
46348;SDS011;32057;47.830;19.046;2023-03-01T06:15:11;4.20;;;3.67;;
46348;SDS011;32057;47.830;19.046;2023-03-01T06:17:39;8.00;;;3.25;;
46348;SDS011;32057;47.830;19.046;2023-03-01T06:20:14;4.18;;;2.90;;
46348;SDS011;32057;47.830;19.046;2023-03-01T06:22:42;6.07;;;4.03;;
46348;SDS011;32057;47.830;19.046;2023-03-01T06:25:08;5.78;;;3.25;;
46348;SDS011;32057;47.830;19.046;2023-03-01T06:27:34;5.63;;;4.00;;
46348;SDS011;32057;47.830;19.046;2023-03-01T06:30:00;7.97;;;4.47;;
46348;SDS011;32057;47.830;19.046;2023-03-01T06:32:26;11.65;;;3.83;;
46348;SDS011;32057;47.830;19.046;2023-03-01T06:34:51;6.50;;;3.55;;
46348;SDS011;32057;47.830;19.046;2023-03-01T06:37:17;5.63;;;4.63;;
46348;SDS011;32057;47.830;19.046;2023-03-01T06:39:42;6.22;;;4.57;;
46348;SDS011;32057;47.830;19.046;2023-03-01T06:42:08;9.68;;;4.97;;
46348;SDS011;32057;47.830;19.046;2023-03-01T06:44:35;7.32;;;3.28;;
46348;SDS011;32057;47.830;19.046;2023-03-01T06:47:00;5.57;;;3.58;;
46348;SDS011;32057;47.830;19.046;2023-03-01T06:49:26;4.07;;;3.10;;
46348;SDS011;32057;47.830;19.046;2023-03-01T06:51:51;11.07;;;3.50;;
46348;SDS011;32057;47.830;19.046;2023-03-01T06:54:17;8.75;;;4.25;;
46348;SDS011;32057;47.830;19.046;2023-03-01T06:56:42;4.32;;;2.97;;
46348;SDS011;32057;47.830;19.046;2023-03-01T06:59:11;4.45;;;3.92;;
46348;SDS011;32057;47.830;19.046;2023-03-01T07:01:36;4.63;;;4.03;;
46348;SDS011;32057;47.830;19.046;2023-03-01T07:04:02;7.53;;;5.20;;
46348;SDS011;32057;47.830;19.046;2023-03-01T07:06:27;5.72;;;3.35;;
46348;SDS011;32057;47.830;19.046;2023-03-01T07:08:53;9.35;;;4.50;;
46348;SDS011;32057;47.830;19.046;2023-03-01T07:11:18;4.90;;;3.47;;
46348;SDS011;32057;47.830;19.046;2023-03-01T07:13:43;3.53;;;2.90;;
46348;SDS011;32057;47.830;19.046;2023-03-01T07:16:09;6.00;;;3.15;;
46348;SDS011;32057;47.830;19.046;2023-03-01T07:18:34;6.93;;;3.08;;
46348;SDS011;32057;47.830;19.046;2023-03-01T07:21:06;4.15;;;3.75;;
46348;SDS011;32057;47.830;19.046;2023-03-01T07:23:33;5.95;;;3.92;;
46348;SDS011;32057;47.830;19.046;2023-03-01T07:25:59;6.78;;;2.85;;
46348;SDS011;32057;47.830;19.046;2023-03-01T07:28:25;4.28;;;3.03;;
46348;SDS011;32057;47.830;19.046;2023-03-01T07:30:51;10.30;;;3.53;;
46348;SDS011;32057;47.830;19.046;2023-03-01T07:33:17;4.63;;;4.10;;
46348;SDS011;32057;47.830;19.046;2023-03-01T07:35:42;5.05;;;2.88;;
46348;SDS011;32057;47.830;19.046;2023-03-01T07:38:08;9.10;;;4.50;;
46348;SDS011;32057;47.830;19.046;2023-03-01T07:40:33;3.42;;;3.13;;
46348;SDS011;32057;47.830;19.046;2023-03-01T07:42:59;6.25;;;3.28;;
46348;SDS011;32057;47.830;19.046;2023-03-01T07:45:29;7.32;;;4.30;;
46348;SDS011;32057;47.830;19.046;2023-03-01T07:47:55;5.95;;;3.35;;
46348;SDS011;32057;47.830;19.046;2023-03-01T07:50:21;7.55;;;3.47;;
46348;SDS011;32057;47.830;19.046;2023-03-01T07:52:47;5.78;;;2.47;;
46348;SDS011;32057;47.830;19.046;2023-03-01T07:55:15;4.55;;;3.33;;
46348;SDS011;32057;47.830;19.046;2023-03-01T07:57:41;4.15;;;3.55;;
46348;SDS011;32057;47.830;19.046;2023-03-01T08:00:09;3.65;;;3.25;;
46348;SDS011;32057;47.830;19.046;2023-03-01T08:02:36;6.30;;;4.15;;
46348;SDS011;32057;47.830;19.046;2023-03-01T08:05:01;5.15;;;3.10;;
46348;SDS011;32057;47.830;19.046;2023-03-01T08:07:27;4.93;;;3.13;;
46348;SDS011;32057;47.830;19.046;2023-03-01T08:09:52;5.07;;;3.60;;
46348;SDS011;32057;47.830;19.046;2023-03-01T08:12:18;3.33;;;2.50;;
46348;SDS011;32057;47.830;19.046;2023-03-01T08:14:43;5.55;;;3.55;;
46348;SDS011;32057;47.830;19.046;2023-03-01T08:17:09;4.60;;;3.05;;
46348;SDS011;32057;47.830;19.046;2023-03-01T08:19:34;6.40;;;3.45;;
46348;SDS011;32057;47.830;19.046;2023-03-01T08:22:01;4.28;;;3.22;;
46348;SDS011;32057;47.830;19.046;2023-03-01T08:24:27;5.75;;;3.90;;
46348;SDS011;32057;47.830;19.046;2023-03-01T08:26:53;4.10;;;3.20;;
46348;SDS011;32057;47.830;19.046;2023-03-01T08:29:19;3.78;;;2.63;;
46348;SDS011;32057;47.830;19.046;2023-03-01T08:31:46;5.43;;;4.43;;
46348;SDS011;32057;47.830;19.046;2023-03-01T08:34:13;7.72;;;4.07;;
46348;SDS011;32057;47.830;19.046;2023-03-01T08:36:41;6.72;;;3.80;;
46348;SDS011;32057;47.830;19.046;2023-03-01T08:39:09;8.43;;;4.95;;
46348;SDS011;32057;47.830;19.046;2023-03-01T08:41:36;5.78;;;3.33;;
46348;SDS011;32057;47.830;19.046;2023-03-01T08:44:02;6.25;;;4.00;;
46348;SDS011;32057;47.830;19.046;2023-03-01T08:46:29;7.05;;;4.20;;
46348;SDS011;32057;47.830;19.046;2023-03-01T08:48:58;6.78;;;3.22;;
46348;SDS011;32057;47.830;19.046;2023-03-01T08:51:24;3.03;;;2.53;;
46348;SDS011;32057;47.830;19.046;2023-03-01T08:53:51;4.07;;;2.80;;
46348;SDS011;32057;47.830;19.046;2023-03-01T08:56:17;5.32;;;3.42;;
46348;SDS011;32057;47.830;19.046;2023-03-01T08:58:46;2.72;;;2.35;;
46348;SDS011;32057;47.830;19.046;2023-03-01T09:01:14;2.30;;;2.10;;
46348;SDS011;32057;47.830;19.046;2023-03-01T09:03:41;3.55;;;2.75;;
46348;SDS011;32057;47.830;19.046;2023-03-01T09:06:08;3.95;;;2.45;;
46348;SDS011;32057;47.830;19.046;2023-03-01T09:08:34;4.57;;;3.10;;
46348;SDS011;32057;47.830;19.046;2023-03-01T09:11:02;5.30;;;3.33;;
46348;SDS011;32057;47.830;19.046;2023-03-01T09:13:28;4.13;;;2.72;;
46348;SDS011;32057;47.830;19.046;2023-03-01T09:15:56;2.42;;;2.22;;
46348;SDS011;32057;47.830;19.046;2023-03-01T09:18:22;6.32;;;2.95;;
46348;SDS011;32057;47.830;19.046;2023-03-01T09:20:47;5.40;;;3.92;;
46348;SDS011;32057;47.830;19.046;2023-03-01T09:23:13;6.68;;;3.13;;
46348;SDS011;32057;47.830;19.046;2023-03-01T09:25:38;4.25;;;3.13;;
46348;SDS011;32057;47.830;19.046;2023-03-01T09:28:03;4.70;;;3.28;;
46348;SDS011;32057;47.830;19.046;2023-03-01T09:30:29;7.97;;;3.22;;
46348;SDS011;32057;47.830;19.046;2023-03-01T09:32:56;3.50;;;2.58;;
46348;SDS011;32057;47.830;19.046;2023-03-01T09:35:21;4.90;;;3.60;;
46348;SDS011;32057;47.830;19.046;2023-03-01T09:37:48;3.78;;;3.17;;
46348;SDS011;32057;47.830;19.046;2023-03-01T09:40:16;5.13;;;3.03;;
46348;SDS011;32057;47.830;19.046;2023-03-01T09:42:46;6.93;;;2.15;;
46348;SDS011;32057;47.830;19.046;2023-03-01T09:47:54;4.45;;;2.92;;
46348;SDS011;32057;47.830;19.046;2023-03-01T09:50:21;3.75;;;2.70;;
46348;SDS011;32057;47.830;19.046;2023-03-01T10:07:09;8.50;;;3.92;;
46348;SDS011;32057;47.830;19.046;2023-03-01T10:09:38;4.70;;;3.13;;
46348;SDS011;32057;47.830;19.046;2023-03-01T10:12:10;10.75;;;6.82;;
46348;SDS011;32057;47.830;19.046;2023-03-01T10:17:39;4.20;;;3.58;;
46348;SDS011;32057;47.830;19.046;2023-03-01T10:22:46;4.32;;;2.88;;
46348;SDS011;32057;47.830;19.046;2023-03-01T10:25:15;3.63;;;3.20;;
46348;SDS011;32057;47.830;19.046;2023-03-01T10:27:54;2.53;;;2.22;;
46348;SDS011;32057;47.830;19.046;2023-03-01T10:30:35;3.90;;;2.88;;
46348;SDS011;32057;47.830;19.046;2023-03-01T10:33:05;5.65;;;4.00;;
46348;SDS011;32057;47.830;19.046;2023-03-01T10:35:54;9.77;;;4.65;;
46348;SDS011;32057;47.830;19.046;2023-03-01T10:38:20;8.13;;;4.32;;
46348;SDS011;32057;47.830;19.046;2023-03-01T10:40:50;3.72;;;3.38;;
46348;SDS011;32057;47.830;19.046;2023-03-01T10:43:24;4.38;;;2.60;;
46348;SDS011;32057;47.830;19.046;2023-03-01T10:45:51;15.52;;;7.20;;
46348;SDS011;32057;47.830;19.046;2023-03-01T10:50:48;9.23;;;5.20;;
46348;SDS011;32057;47.830;19.046;2023-03-01T10:55:57;24.13;;;8.68;;
46348;SDS011;32057;47.830;19.046;2023-03-01T10:58:25;6.85;;;4.75;;
46348;SDS011;32057;47.830;19.046;2023-03-01T11:00:58;3.67;;;2.22;;
46348;SDS011;32057;47.830;19.046;2023-03-01T11:03:30;3.85;;;2.58;;
46348;SDS011;32057;47.830;19.046;2023-03-01T11:06:03;3.88;;;2.85;;
46348;SDS011;32057;47.830;19.046;2023-03-01T11:08:45;4.70;;;2.83;;
46348;SDS011;32057;47.830;19.046;2023-03-01T11:13:38;3.35;;;2.53;;
46348;SDS011;32057;47.830;19.046;2023-03-01T11:16:40;4.78;;;3.22;;
46348;SDS011;32057;47.830;19.046;2023-03-01T11:21:33;3.20;;;2.90;;
46348;SDS011;32057;47.830;19.046;2023-03-01T11:24:03;4.30;;;2.55;;
46348;SDS011;32057;47.830;19.046;2023-03-01T11:26:31;8.82;;;5.00;;
46348;SDS011;32057;47.830;19.046;2023-03-01T11:29:03;3.53;;;2.92;;
46348;SDS011;32057;47.830;19.046;2023-03-01T11:31:36;9.93;;;5.40;;
46348;SDS011;32057;47.830;19.046;2023-03-01T11:36:51;5.47;;;3.45;;
46348;SDS011;32057;47.830;19.046;2023-03-01T11:47:31;1.52;;;1.42;;
46348;SDS011;32057;47.830;19.046;2023-03-01T11:52:59;2.50;;;1.70;;
46348;SDS011;32057;47.830;19.046;2023-03-01T11:55:36;3.58;;;2.92;;
46348;SDS011;32057;47.830;19.046;2023-03-01T12:06:31;2.25;;;1.85;;
46348;SDS011;32057;47.830;19.046;2023-03-01T12:12:03;1.88;;;1.77;;
46348;SDS011;32057;47.830;19.046;2023-03-01T12:20:46;1.90;;;1.80;;
46348;SDS011;32057;47.830;19.046;2023-03-01T12:36:53;2.50;;;2.30;;
46348;SDS011;32057;47.830;19.046;2023-03-01T12:50:54;4.05;;;2.28;;
46348;SDS011;32057;47.830;19.046;2023-03-01T12:56:19;3.08;;;2.05;;
46348;SDS011;32057;47.830;19.046;2023-03-01T13:01:26;2.88;;;2.08;;
46348;SDS011;32057;47.830;19.046;2023-03-01T13:06:37;1.88;;;1.77;;
46348;SDS011;32057;47.830;19.046;2023-03-01T13:09:26;2.63;;;2.42;;
46348;SDS011;32057;47.830;19.046;2023-03-01T13:11:55;8.38;;;1.90;;
46348;SDS011;32057;47.830;19.046;2023-03-01T13:16:46;4.10;;;1.95;;
46348;SDS011;32057;47.830;19.046;2023-03-01T13:21:44;3.28;;;2.42;;
46348;SDS011;32057;47.830;19.046;2023-03-01T13:32:45;3.33;;;2.05;;
46348;SDS011;32057;47.830;19.046;2023-03-01T13:37:39;5.95;;;2.25;;
46348;SDS011;32057;47.830;19.046;2023-03-01T13:40:57;3.42;;;2.00;;
46348;SDS011;32057;47.830;19.046;2023-03-01T13:42:51;1.65;;;1.02;;
46348;SDS011;32057;47.830;19.046;2023-03-01T13:45:20;2.95;;;1.80;;
46348;SDS011;32057;47.830;19.046;2023-03-01T13:47:47;3.38;;;1.83;;
46348;SDS011;32057;47.830;19.046;2023-03-01T13:50:38;2.20;;;1.80;;
46348;SDS011;32057;47.830;19.046;2023-03-01T13:53:10;1.63;;;1.50;;
46348;SDS011;32057;47.830;19.046;2023-03-01T13:55:43;1.60;;;1.48;;
46348;SDS011;32057;47.830;19.046;2023-03-01T13:58:15;1.58;;;1.13;;
46348;SDS011;32057;47.830;19.046;2023-03-01T14:00:57;1.80;;;1.70;;
46348;SDS011;32057;47.830;19.046;2023-03-01T14:03:31;1.67;;;1.35;;
46348;SDS011;32057;47.830;19.046;2023-03-01T14:06:15;2.15;;;1.27;;
46348;SDS011;32057;47.830;19.046;2023-03-01T14:08:44;3.13;;;1.33;;
46348;SDS011;32057;47.830;19.046;2023-03-01T14:11:23;1.80;;;1.52;;
46348;SDS011;32057;47.830;19.046;2023-03-01T14:19:16;3.08;;;1.77;;
46348;SDS011;32057;47.830;19.046;2023-03-01T14:21:46;2.00;;;1.42;;
46348;SDS011;32057;47.830;19.046;2023-03-01T14:24:22;2.67;;;1.48;;
46348;SDS011;32057;47.830;19.046;2023-03-01T14:26:49;1.63;;;1.25;;
46348;SDS011;32057;47.830;19.046;2023-03-01T14:29:29;2.72;;;1.60;;
46348;SDS011;32057;47.830;19.046;2023-03-01T14:32:10;3.00;;;2.25;;
46348;SDS011;32057;47.830;19.046;2023-03-01T14:34:47;2.22;;;1.83;;
46348;SDS011;32057;47.830;19.046;2023-03-01T14:39:57;1.30;;;1.20;;
46348;SDS011;32057;47.830;19.046;2023-03-01T14:42:25;1.40;;;1.17;;
46348;SDS011;32057;47.830;19.046;2023-03-01T14:44:56;7.78;;;1.45;;
46348;SDS011;32057;47.830;19.046;2023-03-01T14:47:30;1.52;;;1.23;;
46348;SDS011;32057;47.830;19.046;2023-03-01T14:49:58;1.58;;;1.30;;
46348;SDS011;32057;47.830;19.046;2023-03-01T14:52:31;2.20;;;1.30;;
46348;SDS011;32057;47.830;19.046;2023-03-01T14:55:02;1.00;;;1.00;;
46348;SDS011;32057;47.830;19.046;2023-03-01T14:57:42;11.55;;;1.77;;
46348;SDS011;32057;47.830;19.046;2023-03-01T15:00:10;2.85;;;2.58;;
46348;SDS011;32057;47.830;19.046;2023-03-01T15:02:43;1.52;;;1.40;;
46348;SDS011;32057;47.830;19.046;2023-03-01T15:05:13;6.07;;;1.63;;
46348;SDS011;32057;47.830;19.046;2023-03-01T15:07:40;2.92;;;2.17;;
46348;SDS011;32057;47.830;19.046;2023-03-01T15:10:56;4.03;;;1.70;;
46348;SDS011;32057;47.830;19.046;2023-03-01T15:13:21;1.25;;;1.02;;
46348;SDS011;32057;47.830;19.046;2023-03-01T15:15:51;8.10;;;2.08;;
46348;SDS011;32057;47.830;19.046;2023-03-01T15:18:26;3.47;;;1.95;;
46348;SDS011;32057;47.830;19.046;2023-03-01T15:20:53;3.80;;;1.73;;
46348;SDS011;32057;47.830;19.046;2023-03-01T15:23:26;1.80;;;1.33;;
46348;SDS011;32057;47.830;19.046;2023-03-01T15:25:55;2.40;;;1.38;;
46348;SDS011;32057;47.830;19.046;2023-03-01T15:28:22;1.90;;;1.35;;
46348;SDS011;32057;47.830;19.046;2023-03-01T15:30:57;2.55;;;1.40;;
46348;SDS011;32057;47.830;19.046;2023-03-01T15:33:29;0.57;;;0.57;;
46348;SDS011;32057;47.830;19.046;2023-03-01T15:35:55;1.02;;;0.68;;
46348;SDS011;32057;47.830;19.046;2023-03-01T15:38:26;0.75;;;0.75;;
46348;SDS011;32057;47.830;19.046;2023-03-01T15:40:53;0.77;;;0.77;;
46348;SDS011;32057;47.830;19.046;2023-03-01T15:46:03;0.50;;;0.50;;
46348;SDS011;32057;47.830;19.046;2023-03-01T15:48:29;1.10;;;0.80;;
46348;SDS011;32057;47.830;19.046;2023-03-01T15:50:55;0.75;;;0.75;;
46348;SDS011;32057;47.830;19.046;2023-03-01T15:53:22;2.20;;;0.55;;
46348;SDS011;32057;47.830;19.046;2023-03-01T15:55:48;0.60;;;0.52;;
46348;SDS011;32057;47.830;19.046;2023-03-01T15:58:16;1.00;;;0.93;;
46348;SDS011;32057;47.830;19.046;2023-03-01T16:00:44;0.88;;;0.85;;
46348;SDS011;32057;47.830;19.046;2023-03-01T16:03:10;0.70;;;0.68;;
46348;SDS011;32057;47.830;19.046;2023-03-01T16:05:37;1.85;;;0.82;;
46348;SDS011;32057;47.830;19.046;2023-03-01T16:08:04;2.67;;;0.75;;
46348;SDS011;32057;47.830;19.046;2023-03-01T16:10:34;0.63;;;0.55;;
46348;SDS011;32057;47.830;19.046;2023-03-01T16:13:08;1.00;;;0.90;;
46348;SDS011;32057;47.830;19.046;2023-03-01T16:15:34;4.30;;;1.15;;
46348;SDS011;32057;47.830;19.046;2023-03-01T16:18:00;0.82;;;0.80;;
46348;SDS011;32057;47.830;19.046;2023-03-01T16:20:27;1.48;;;0.82;;
46348;SDS011;32057;47.830;19.046;2023-03-01T16:22:54;2.10;;;1.02;;
46348;SDS011;32057;47.830;19.046;2023-03-01T16:25:22;2.28;;;1.58;;
46348;SDS011;32057;47.830;19.046;2023-03-01T16:27:49;3.80;;;0.73;;
46348;SDS011;32057;47.830;19.046;2023-03-01T16:30:15;1.48;;;0.60;;
46348;SDS011;32057;47.830;19.046;2023-03-01T16:32:43;0.88;;;0.88;;
46348;SDS011;32057;47.830;19.046;2023-03-01T16:35:11;0.65;;;0.65;;
46348;SDS011;32057;47.830;19.046;2023-03-01T16:37:38;1.35;;;1.30;;
46348;SDS011;32057;47.830;19.046;2023-03-01T16:40:04;2.50;;;1.02;;
46348;SDS011;32057;47.830;19.046;2023-03-01T16:42:40;2.40;;;1.20;;
46348;SDS011;32057;47.830;19.046;2023-03-01T16:45:07;1.77;;;1.67;;
46348;SDS011;32057;47.830;19.046;2023-03-01T16:47:33;0.47;;;0.40;;
46348;SDS011;32057;47.830;19.046;2023-03-01T16:49:58;16.77;;;3.85;;
46348;SDS011;32057;47.830;19.046;2023-03-01T16:52:23;2.50;;;2.30;;
46348;SDS011;32057;47.830;19.046;2023-03-01T16:54:49;0.85;;;0.82;;